Time;durP1;ratioP1;P1;durP2;ratioP2;P2;SDS_P1;SDS_P2;PMS_P1;PMS_P2;Temp;Humidity;BMP_temperature;BMP_pressure;BME280_temperature;BME280_humidity;BME280_pressure;Samples;Min_cycle;Max_cycle;Signal;HPM_P1;HPM_P2
2023/08/27 00:01:11;;;;;;;2.63;1.10;;;15.60;99.90;;;;;;5117849;28;20480;-75
2023/08/27 00:03:37;;;;;;;2.03;0.90;;;15.50;99.90;;;;;;5100087;28;20034;-75
2023/08/27 00:06:03;;;;;;;2.50;1.05;;;15.50;99.90;;;;;;5117801;28;20391;-75
2023/08/27 00:08:29;;;;;;;2.05;1.10;;;15.50;99.90;;;;;;5117749;28;20395;-75
2023/08/27 00:11:03;;;;;;;3.38;1.02;;;15.60;99.90;;;;;;5099418;28;20180;-75
2023/08/27 00:13:29;;;;;;;2.08;1.13;;;15.70;99.90;;;;;;5117749;28;20027;-75
2023/08/27 00:15:54;;;;;;;1.80;0.93;;;15.70;99.90;;;;;;5118095;28;20027;-75
2023/08/27 00:18:20;;;;;;;2.20;1.00;;;15.80;99.90;;;;;;5117501;28;20027;-75
2023/08/27 00:20:47;;;;;;;4.13;1.20;;;15.80;99.90;;;;;;5117521;28;20042;-75
2023/08/27 00:23:12;;;;;;;2.20;1.20;;;15.80;99.90;;;;;;5117604;28;20020;-75
2023/08/27 00:25:39;;;;;;;2.67;1.20;;;15.80;99.90;;;;;;5099252;28;20077;-75
2023/08/27 00:28:04;;;;;;;3.80;1.30;;;15.80;99.90;;;;;;5099169;28;20533;-75
2023/08/27 00:30:30;;;;;;;2.50;1.15;;;15.80;99.90;;;;;;5099114;28;20035;-75
2023/08/27 00:32:56;;;;;;;2.60;1.08;;;15.80;99.90;;;;;;5117439;28;20391;-75
2023/08/27 00:35:22;;;;;;;2.58;0.80;;;15.70;99.90;;;;;;5117303;28;20028;-75
2023/08/27 00:37:47;;;;;;;2.53;1.10;;;15.70;99.90;;;;;;5117780;28;20032;-75
2023/08/27 00:40:13;;;;;;;2.20;0.93;;;15.70;99.90;;;;;;5117060;28;20027;-75
2023/08/27 00:42:39;;;;;;;2.80;1.20;;;15.70;99.90;;;;;;5117093;28;20032;-75
2023/08/27 00:45:06;;;;;;;4.10;1.25;;;15.70;99.90;;;;;;5117282;28;20059;-75
2023/08/27 00:47:35;;;;;;;3.13;1.20;;;15.80;99.90;;;;;;5099048;28;20112;-75
2023/08/27 00:50:02;;;;;;;3.30;1.10;;;15.70;99.90;;;;;;5117450;28;20020;-75
2023/08/27 00:52:28;;;;;;;3.47;1.42;;;15.70;99.90;;;;;;5116893;28;20020;-75
2023/08/27 00:54:55;;;;;;;3.20;1.10;;;15.70;99.90;;;;;;5116870;28;20032;-75
2023/08/27 00:57:21;;;;;;;3.03;1.10;;;15.60;99.90;;;;;;5081694;28;20024;-75
2023/08/27 00:59:48;;;;;;;3.03;0.98;;;15.50;99.90;;;;;;5116561;28;20019;-75
2023/08/27 01:02:15;;;;;;;4.40;1.20;;;15.50;99.90;;;;;;5098749;28;20048;-75
2023/08/27 01:04:40;;;;;;;4.00;1.40;;;15.50;99.90;;;;;;5116728;28;20031;-75
2023/08/27 01:07:16;;;;;;;3.92;1.20;;;15.50;99.90;;;;;;5116624;28;20430;-75
2023/08/27 01:09:50;;;;;;;2.90;1.13;;;15.40;99.90;;;;;;5116546;28;20394;-75
2023/08/27 01:12:45;;;;;;;3.08;1.20;;;15.40;99.90;;;;;;5116811;28;20020;-75
2023/08/27 01:15:13;;;;;;;3.38;1.13;;;15.40;99.90;;;;;;5102780;28;20032;-75
2023/08/27 01:17:39;;;;;;;4.20;1.38;;;15.30;99.90;;;;;;5116366;28;20029;-75
2023/08/27 01:20:06;;;;;;;2.55;1.23;;;15.40;99.90;;;;;;5116339;28;20066;-75
2023/08/27 01:22:32;;;;;;;4.03;1.40;;;15.40;99.90;;;;;;5116326;28;20027;-75
2023/08/27 01:24:57;;;;;;;1.90;0.90;;;15.40;99.90;;;;;;5116352;28;20020;-75
2023/08/27 01:27:29;;;;;;;1.70;1.02;;;15.30;99.90;;;;;;5116267;28;20384;-75
2023/08/27 01:30:20;;;;;;;3.78;1.05;;;15.40;99.90;;;;;;5115910;28;20099;-75
2023/08/27 01:32:51;;;;;;;3.92;1.38;;;15.40;99.90;;;;;;5116269;28;20053;-75
2023/08/27 01:35:17;;;;;;;2.15;1.20;;;15.40;99.90;;;;;;5116515;28;20199;-75
2023/08/27 01:37:44;;;;;;;4.47;1.45;;;15.50;99.90;;;;;;5115969;28;20058;-75
2023/08/27 01:40:10;;;;;;;2.83;1.40;;;15.50;99.90;;;;;;5116027;28;20031;-75
2023/08/27 01:42:36;;;;;;;2.33;0.93;;;15.50;99.90;;;;;;5115636;27;20495;-75
2023/08/27 01:45:04;;;;;;;3.45;1.30;;;15.50;99.90;;;;;;5097814;28;20388;-75
2023/08/27 01:47:30;;;;;;;3.90;1.30;;;15.50;99.90;;;;;;5116305;28;20077;-75
2023/08/27 01:49:56;;;;;;;2.25;1.40;;;15.50;99.90;;;;;;5115797;28;20015;-75
2023/08/27 01:52:22;;;;;;;3.10;1.70;;;15.60;99.90;;;;;;5115790;28;20031;-75
2023/08/27 01:54:51;;;;;;;2.92;1.58;;;15.60;99.90;;;;;;5097561;28;20035;-75
2023/08/27 01:57:16;;;;;;;2.08;1.10;;;15.60;99.90;;;;;;5115636;28;20020;-75
2023/08/27 01:59:42;;;;;;;3.20;1.20;;;15.60;99.90;;;;;;5115881;28;20028;-75
2023/08/27 02:02:08;;;;;;;3.15;1.20;;;15.60;99.90;;;;;;5115618;28;20023;-75
2023/08/27 02:04:34;;;;;;;5.03;1.38;;;15.60;99.90;;;;;;5115576;28;20130;-75
2023/08/27 02:06:59;;;;;;;2.20;1.20;;;15.50;99.90;;;;;;5097493;28;20479;-75
2023/08/27 02:09:25;;;;;;;1.77;1.08;;;15.50;99.90;;;;;;5097275;28;20027;-75
2023/08/27 02:11:52;;;;;;;3.60;1.60;;;15.50;99.90;;;;;;5114535;28;20107;-75
2023/08/27 02:14:18;;;;;;;7.13;2.65;;;15.40;99.90;;;;;;5115369;28;20115;-75
2023/08/27 02:16:43;;;;;;;7.45;2.97;;;15.40;99.90;;;;;;5115292;28;20055;-75
2023/08/27 02:19:09;;;;;;;8.10;3.67;;;15.40;99.90;;;;;;5115234;28;20472;-75
2023/08/27 02:21:35;;;;;;;8.15;3.38;;;15.40;99.90;;;;;;5115152;28;20507;-75
2023/08/27 02:24:00;;;;;;;5.28;2.67;;;15.40;99.90;;;;;;5097030;28;20058;-75
2023/08/27 02:26:26;;;;;;;4.47;2.45;;;15.40;99.90;;;;;;5097103;28;20028;-75
2023/08/27 02:28:52;;;;;;;5.45;1.60;;;15.40;99.90;;;;;;5096970;28;20043;-75
2023/08/27 02:31:18;;;;;;;3.70;1.73;;;15.40;99.90;;;;;;5115262;28;20031;-75
2023/08/27 02:33:46;;;;;;;2.95;1.63;;;15.40;99.90;;;;;;5115131;28;20051;-75
2023/08/27 02:36:12;;;;;;;3.70;1.48;;;15.40;99.90;;;;;;5115033;28;20492;-75
2023/08/27 02:38:38;;;;;;;3.50;1.50;;;15.40;99.90;;;;;;5115291;28;20111;-75
2023/08/27 02:41:03;;;;;;;2.60;1.30;;;15.40;99.90;;;;;;5096636;28;20365;-75
2023/08/27 02:43:29;;;;;;;4.35;1.52;;;15.50;99.90;;;;;;5115016;28;20412;-75
2023/08/27 02:45:55;;;;;;;3.17;1.80;;;15.50;99.90;;;;;;5115001;28;20024;-74
2023/08/27 02:48:20;;;;;;;5.95;1.92;;;15.50;99.90;;;;;;5114967;28;20039;-74
2023/08/27 02:50:46;;;;;;;4.57;1.80;;;15.50;99.90;;;;;;5116307;28;20024;-74
2023/08/27 02:53:12;;;;;;;3.80;2.00;;;15.50;99.90;;;;;;5098253;28;20035;-74
2023/08/27 02:55:37;;;;;;;3.55;1.63;;;15.40;99.90;;;;;;5117501;28;20027;-75
2023/08/27 02:58:03;;;;;;;4.90;1.95;;;15.40;99.90;;;;;;5115256;28;20035;-74
2023/08/27 03:00:29;;;;;;;3.17;2.10;;;15.40;99.90;;;;;;5115252;28;20024;-74
2023/08/27 03:02:56;;;;;;;4.35;1.85;;;15.40;99.90;;;;;;5115120;28;20043;-74
2023/08/27 03:05:22;;;;;;;2.67;1.40;;;15.40;99.90;;;;;;5115772;28;20039;-75
2023/08/27 03:07:48;;;;;;;4.35;1.83;;;15.30;99.90;;;;;;5096902;28;20040;-74
2023/08/27 03:10:14;;;;;;;4.07;1.70;;;15.40;99.90;;;;;;5114598;28;20403;-75
2023/08/27 03:12:40;;;;;;;3.88;1.40;;;15.40;99.90;;;;;;5096384;28;20036;-75
2023/08/27 03:15:06;;;;;;;3.00;1.92;;;15.30;99.90;;;;;;5096195;28;20109;-75
2023/08/27 03:17:32;;;;;;;5.78;2.05;;;15.30;99.90;;;;;;5096270;28;20031;-74
2023/08/27 03:19:58;;;;;;;3.72;2.13;;;15.20;99.90;;;;;;5114106;28;20015;-74
2023/08/27 03:22:24;;;;;;;4.40;2.13;;;15.10;99.90;;;;;;5114208;28;20369;-74
2023/08/27 03:24:50;;;;;;;3.47;1.90;;;15.10;99.90;;;;;;5096086;28;20024;-74
2023/08/27 03:27:15;;;;;;;2.38;1.65;;;15.00;99.90;;;;;;5114357;28;20472;-75
2023/08/27 03:29:41;;;;;;;3.28;1.95;;;15.00;99.90;;;;;;5114145;28;20024;-75
2023/08/27 03:32:06;;;;;;;2.58;1.77;;;15.10;99.90;;;;;;5096383;28;20038;-75
2023/08/27 03:34:32;;;;;;;3.13;1.75;;;15.10;99.90;;;;;;5113953;28;20016;-74
2023/08/27 03:36:58;;;;;;;3.03;1.95;;;15.20;99.90;;;;;;5114167;28;20028;-75
2023/08/27 03:39:24;;;;;;;3.55;2.40;;;15.20;99.90;;;;;;5114489;28;20028;-74
2023/08/27 03:41:50;;;;;;;4.10;2.40;;;15.30;99.90;;;;;;5095921;28;20373;-74
2023/08/27 03:44:16;;;;;;;3.65;2.22;;;15.40;99.90;;;;;;5114029;28;20020;-75
2023/08/27 03:46:41;;;;;;;4.03;2.35;;;15.40;99.90;;;;;;5095860;28;20024;-75
2023/08/27 03:49:07;;;;;;;4.78;2.72;;;15.40;99.90;;;;;;5114073;28;20035;-75
2023/08/27 03:51:33;;;;;;;3.33;2.10;;;15.40;99.90;;;;;;5095766;28;20471;-74
2023/08/27 03:53:59;;;;;;;4.60;2.33;;;15.40;99.90;;;;;;5095637;28;20043;-75
2023/08/27 03:56:25;;;;;;;5.63;2.55;;;15.40;99.90;;;;;;5114667;28;20384;-75
2023/08/27 03:58:51;;;;;;;5.47;3.00;;;15.40;99.90;;;;;;5095447;28;20031;-75
2023/08/27 04:01:17;;;;;;;4.65;3.15;;;15.40;99.90;;;;;;5113896;28;20073;-75
2023/08/27 04:03:43;;;;;;;4.43;2.85;;;15.40;99.90;;;;;;5095628;28;20022;-75
2023/08/27 04:06:12;;;;;;;4.45;2.95;;;15.40;99.90;;;;;;5113787;28;20019;-75
2023/08/27 04:08:38;;;;;;;5.18;3.30;;;15.40;99.90;;;;;;5096351;28;20038;-74
2023/08/27 04:11:04;;;;;;;6.78;4.45;;;15.40;99.90;;;;;;5114031;28;20027;-75
2023/08/27 04:13:31;;;;;;;6.05;3.60;;;15.50;99.90;;;;;;5114076;28;20023;-75
2023/08/27 04:16:07;;;;;;;6.32;4.05;;;15.50;99.90;;;;;;5114829;28;20032;-75
2023/08/27 04:18:33;;;;;;;6.70;3.70;;;15.50;99.90;;;;;;5075301;28;20031;-75
2023/08/27 04:20:59;;;;;;;4.88;3.08;;;15.50;99.90;;;;;;5075123;28;20024;-75
2023/08/27 04:23:26;;;;;;;5.70;3.15;;;15.40;99.90;;;;;;5093430;28;20028;-76
2023/08/27 04:25:52;;;;;;;5.63;3.83;;;15.40;99.90;;;;;;5093312;28;20020;-75
2023/08/27 04:28:18;;;;;;;5.18;2.80;;;15.30;99.90;;;;;;5093142;28;20035;-75
2023/08/27 04:30:47;;;;;;;5.28;2.70;;;15.30;99.90;;;;;;5093693;28;20017;-72
2023/08/27 04:33:13;;;;;;;5.15;3.00;;;15.30;99.90;;;;;;5092824;28;20111;-72
2023/08/27 04:35:38;;;;;;;7.22;3.20;;;15.20;99.90;;;;;;5076419;28;20170;-72
2023/08/27 04:38:05;;;;;;;4.25;2.50;;;15.20;99.90;;;;;;5096729;28;20039;-72
2023/08/27 04:40:31;;;;;;;7.47;2.58;;;15.20;99.90;;;;;;5096696;28;20039;-72
2023/08/27 04:43:00;;;;;;;4.40;2.58;;;15.20;99.90;;;;;;5096736;28;20032;-72
2023/08/27 04:45:25;;;;;;;2.78;2.38;;;15.20;99.90;;;;;;5078591;28;20105;-72
2023/08/27 04:47:51;;;;;;;5.03;2.35;;;15.20;99.90;;;;;;5093349;28;20483;-72
2023/08/27 04:50:17;;;;;;;3.65;2.10;;;15.20;99.90;;;;;;5116913;28;20035;-72
2023/08/27 04:52:43;;;;;;;3.03;1.88;;;15.20;99.90;;;;;;5116883;28;20101;-72
2023/08/27 04:55:09;;;;;;;2.83;1.58;;;15.20;99.90;;;;;;5116807;28;20031;-72
2023/08/27 04:57:36;;;;;;;4.07;1.92;;;15.20;99.90;;;;;;5116746;28;20019;-72
2023/08/27 05:00:16;;;;;;;4.82;2.22;;;15.30;99.90;;;;;;5117023;28;20043;-72
2023/08/27 05:02:42;;;;;;;3.40;1.65;;;15.30;99.90;;;;;;5116764;28;20434;-72
2023/08/27 05:05:08;;;;;;;3.03;1.77;;;15.30;99.90;;;;;;5116951;28;20024;-72
2023/08/27 05:07:33;;;;;;;2.70;1.92;;;15.40;99.90;;;;;;5116645;28;20051;-72
2023/08/27 05:09:59;;;;;;;2.90;1.73;;;15.40;99.90;;;;;;5116747;28;20042;-72
2023/08/27 05:12:25;;;;;;;3.22;1.73;;;15.50;99.90;;;;;;5116523;28;20024;-72
2023/08/27 05:14:50;;;;;;;2.30;1.50;;;15.50;99.90;;;;;;5098463;28;20027;-72
2023/08/27 05:17:16;;;;;;;3.03;1.70;;;15.60;99.90;;;;;;5098023;28;20024;-72
2023/08/27 05:19:42;;;;;;;4.00;2.33;;;15.60;99.90;;;;;;5097968;28;20081;-72
2023/08/27 05:22:07;;;;;;;3.40;2.20;;;15.70;99.90;;;;;;5098122;28;20035;-72
2023/08/27 05:24:34;;;;;;;3.72;2.20;;;15.70;99.90;;;;;;5116161;28;20465;-72
2023/08/27 05:27:00;;;;;;;3.10;2.13;;;15.70;99.90;;;;;;5115726;28;20023;-72
2023/08/27 05:29:26;;;;;;;4.15;2.45;;;15.70;99.90;;;;;;5116711;28;20050;-72
2023/08/27 05:31:52;;;;;;;4.25;2.40;;;15.80;99.90;;;;;;5115998;28;20016;-74
2023/08/27 05:34:18;;;;;;;3.42;2.10;;;15.80;99.90;;;;;;5116179;28;20369;-74
2023/08/27 05:36:44;;;;;;;3.80;2.42;;;15.80;99.90;;;;;;5116080;28;20023;-74
2023/08/27 05:39:10;;;;;;;2.90;2.10;;;15.80;99.90;;;;;;5116276;28;20107;-75
2023/08/27 05:41:36;;;;;;;3.97;1.85;;;15.80;99.90;;;;;;5115951;28;20107;-75
2023/08/27 05:44:02;;;;;;;2.88;1.75;;;15.80;99.90;;;;;;5115984;28;20103;-75
2023/08/27 05:46:27;;;;;;;3.38;2.15;;;15.80;99.90;;;;;;5111508;28;20103;-74
2023/08/27 05:48:53;;;;;;;3.08;1.98;;;15.80;99.90;;;;;;5095789;28;20549;-75
2023/08/27 05:51:19;;;;;;;4.70;1.88;;;15.80;99.90;;;;;;5077372;28;20028;-74
2023/08/27 05:53:44;;;;;;;4.07;2.15;;;15.80;99.90;;;;;;5095233;28;20523;-75
2023/08/27 05:56:10;;;;;;;3.95;2.10;;;15.90;99.90;;;;;;5095287;28;20032;-74
2023/08/27 05:58:36;;;;;;;3.70;2.08;;;15.90;99.90;;;;;;5095202;28;20024;-75
2023/08/27 06:01:02;;;;;;;5.90;1.80;;;15.90;99.90;;;;;;5095112;28;20020;-74
2023/08/27 06:03:28;;;;;;;4.25;2.50;;;15.90;99.90;;;;;;5094965;28;20069;-74
2023/08/27 06:05:54;;;;;;;3.13;1.80;;;16.00;99.90;;;;;;5095434;28;20476;-75
2023/08/27 06:08:19;;;;;;;3.67;1.80;;;16.00;99.90;;;;;;5095307;28;20480;-75
2023/08/27 06:10:45;;;;;;;5.53;1.60;;;15.90;99.90;;;;;;5095679;28;20054;-74
2023/08/27 06:13:11;;;;;;;4.90;1.48;;;15.90;99.90;;;;;;5095517;28;20071;-74
2023/08/27 06:15:39;;;;;;;3.75;1.85;;;15.90;99.90;;;;;;5095205;28;20028;-74
2023/08/27 06:18:05;;;;;;;4.05;1.88;;;15.90;99.90;;;;;;5094487;28;20472;-74
2023/08/27 06:20:33;;;;;;;2.83;1.50;;;15.80;99.90;;;;;;5094836;28;20069;-74
2023/08/27 06:23:00;;;;;;;2.90;1.67;;;15.80;99.90;;;;;;5077001;28;20480;-74
2023/08/27 06:25:25;;;;;;;3.40;1.70;;;15.80;99.90;;;;;;5094769;28;20028;-74
2023/08/27 06:27:54;;;;;;;2.92;1.83;;;15.80;99.90;;;;;;5094901;28;20020;-75
2023/08/27 06:30:20;;;;;;;3.50;1.90;;;15.80;99.90;;;;;;5094462;28;20025;-74
2023/08/27 06:32:46;;;;;;;3.60;2.03;;;15.80;99.90;;;;;;5094300;28;20032;-74
2023/08/27 06:35:11;;;;;;;3.10;1.85;;;15.80;99.90;;;;;;5095053;28;20472;-74
2023/08/27 06:37:37;;;;;;;4.00;1.92;;;15.80;99.90;;;;;;5076282;28;20028;-74
2023/08/27 06:40:03;;;;;;;2.90;1.58;;;15.90;99.90;;;;;;5094424;28;20036;-74
2023/08/27 06:42:29;;;;;;;4.95;2.10;;;15.90;99.90;;;;;;5094454;28;20028;-74
2023/08/27 06:44:54;;;;;;;3.30;1.90;;;15.90;99.90;;;;;;5094634;28;20032;-75
2023/08/27 06:47:20;;;;;;;3.80;1.83;;;16.00;99.90;;;;;;5076006;28;20058;-74
2023/08/27 06:49:50;;;;;;;2.38;1.73;;;16.00;99.90;;;;;;5094480;28;20074;-74
2023/08/27 06:52:18;;;;;;;3.15;1.90;;;16.00;99.90;;;;;;5094623;28;20024;-75
2023/08/27 06:54:43;;;;;;;4.15;1.98;;;16.00;99.90;;;;;;5094023;28;20496;-74
2023/08/27 06:57:09;;;;;;;4.22;2.28;;;16.00;99.90;;;;;;5094144;28;20028;-74
2023/08/27 06:59:35;;;;;;;3.65;1.90;;;16.00;99.90;;;;;;5075554;28;20393;-75
2023/08/27 07:02:03;;;;;;;3.17;1.52;;;16.00;99.90;;;;;;5093806;28;20021;-74
2023/08/27 07:04:28;;;;;;;2.60;1.60;;;16.10;99.90;;;;;;5094006;28;20032;-74
2023/08/27 07:06:54;;;;;;;3.70;1.60;;;16.10;99.90;;;;;;5094245;28;20038;-74
2023/08/27 07:09:22;;;;;;;3.90;1.83;;;16.10;99.90;;;;;;5094003;28;20439;-74
2023/08/27 07:11:48;;;;;;;4.00;1.90;;;16.10;99.90;;;;;;5093920;28;20032;-74
2023/08/27 07:14:13;;;;;;;2.35;1.40;;;16.10;99.90;;;;;;5093854;28;20055;-74
2023/08/27 07:16:39;;;;;;;3.50;1.85;;;16.10;99.90;;;;;;5094573;28;20366;-72
2023/08/27 07:19:05;;;;;;;3.22;1.75;;;16.10;99.90;;;;;;5114031;28;20019;-74
2023/08/27 07:21:31;;;;;;;3.63;2.05;;;16.10;99.90;;;;;;5111583;28;20494;-74
2023/08/27 07:23:57;;;;;;;4.90;2.03;;;16.10;99.90;;;;;;5114094;28;20047;-74
2023/08/27 07:26:22;;;;;;;3.00;1.83;;;16.10;99.90;;;;;;5114370;28;20028;-74
2023/08/27 07:28:48;;;;;;;2.97;1.50;;;16.10;99.90;;;;;;5114346;28;20468;-74
2023/08/27 07:31:14;;;;;;;2.83;1.70;;;16.10;99.90;;;;;;5113951;28;20399;-74
2023/08/27 07:33:40;;;;;;;5.18;1.92;;;16.20;99.90;;;;;;5113781;28;20494;-74
2023/08/27 07:36:05;;;;;;;2.80;1.40;;;16.20;99.90;;;;;;5113945;28;20031;-74
2023/08/27 07:38:31;;;;;;;3.20;1.50;;;16.20;99.90;;;;;;5095938;28;20039;-74
2023/08/27 07:40:57;;;;;;;4.05;1.52;;;16.30;99.90;;;;;;5113788;28;20030;-74
2023/08/27 07:43:22;;;;;;;2.70;1.48;;;16.30;99.90;;;;;;5113897;28;20024;-74
2023/08/27 07:45:48;;;;;;;2.35;1.50;;;16.30;99.90;;;;;;5114091;28;20077;-74
2023/08/27 07:48:14;;;;;;;3.85;1.50;;;16.30;99.90;;;;;;5102908;28;20076;-74
2023/08/27 07:50:40;;;;;;;3.33;1.40;;;16.40;99.90;;;;;;5113732;28;20032;-74
2023/08/27 07:53:05;;;;;;;3.97;1.83;;;16.40;99.90;;;;;;5113657;28;20036;-74
2023/08/27 07:55:34;;;;;;;5.25;1.70;;;16.40;99.90;;;;;;5113807;28;20028;-74
2023/08/27 07:58:00;;;;;;;2.88;1.88;;;16.50;99.90;;;;;;5113682;28;20031;-73
2023/08/27 08:00:26;;;;;;;2.95;1.42;;;16.50;99.90;;;;;;5113644;28;20023;-74
2023/08/27 08:02:51;;;;;;;3.00;1.65;;;16.60;99.90;;;;;;5113597;28;20031;-74
2023/08/27 08:05:17;;;;;;;2.50;1.40;;;16.60;99.90;;;;;;5113835;28;20063;-74
2023/08/27 08:07:43;;;;;;;2.38;1.40;;;16.70;99.90;;;;;;5095344;28;20077;-74
2023/08/27 08:10:08;;;;;;;3.83;1.30;;;16.80;99.90;;;;;;5114302;28;20020;-73
2023/08/27 08:12:35;;;;;;;2.60;1.42;;;16.80;99.90;;;;;;5118023;28;20023;-74
2023/08/27 08:15:01;;;;;;;3.22;1.52;;;16.90;99.90;;;;;;5099650;28;20031;-74
2023/08/27 08:17:26;;;;;;;2.25;1.40;;;16.90;99.90;;;;;;5106271;28;20020;-74
2023/08/27 08:19:52;;;;;;;3.53;1.60;;;16.90;99.90;;;;;;5097008;28;20032;-74
2023/08/27 08:22:18;;;;;;;4.13;1.58;;;16.90;99.90;;;;;;5097145;28;20052;-73
2023/08/27 08:24:43;;;;;;;2.90;1.48;;;17.00;99.90;;;;;;5097355;28;20047;-72
2023/08/27 08:27:09;;;;;;;2.13;1.23;;;17.00;99.90;;;;;;5096779;28;20074;-71
2023/08/27 08:29:35;;;;;;;2.30;1.60;;;17.00;99.90;;;;;;5097440;28;20028;-71
2023/08/27 08:32:01;;;;;;;2.45;1.40;;;17.00;99.90;;;;;;5096616;28;20036;-72
2023/08/27 08:34:30;;;;;;;2.15;1.02;;;17.00;99.90;;;;;;5097252;28;20028;-71
2023/08/27 08:36:56;;;;;;;3.90;1.42;;;17.10;99.90;;;;;;5078589;28;20081;-71
2023/08/27 08:39:24;;;;;;;3.25;1.70;;;17.20;99.90;;;;;;5096253;28;20028;-71
2023/08/27 08:42:20;;;;;;;2.97;1.45;;;17.20;99.90;;;;;;5096866;28;20024;-71
2023/08/27 08:44:54;;;;;;;2.40;1.23;;;17.30;99.90;;;;;;5097056;28;20042;-72
2023/08/27 08:47:21;;;;;;;2.28;1.30;;;17.30;99.90;;;;;;5096596;28;20012;-72
2023/08/27 08:49:54;;;;;;;1.73;1.23;;;17.40;99.90;;;;;;5105284;28;20038;-71
2023/08/27 08:52:24;;;;;;;2.53;1.30;;;17.40;99.90;;;;;;5117320;28;20019;-71
2023/08/27 08:54:53;;;;;;;2.15;1.48;;;17.40;99.90;;;;;;5116830;28;20408;-71
2023/08/27 08:57:20;;;;;;;2.95;1.05;;;17.40;99.90;;;;;;5117270;28;20031;-71
2023/08/27 08:59:47;;;;;;;1.85;1.02;;;17.50;99.90;;;;;;5115616;28;20063;-72
2023/08/27 09:02:14;;;;;;;1.90;1.00;;;17.60;99.90;;;;;;5115127;28;20052;-72
2023/08/27 09:04:41;;;;;;;2.63;1.15;;;17.70;99.90;;;;;;5116578;28;20024;-72
2023/08/27 09:07:07;;;;;;;2.83;0.90;;;17.70;99.90;;;;;;5116853;28;20020;-72
2023/08/27 09:09:33;;;;;;;2.22;0.52;;;17.80;99.90;;;;;;5116493;28;20108;-72
2023/08/27 09:12:00;;;;;;;2.33;0.80;;;17.80;99.90;;;;;;5115480;28;20063;-71
2023/08/27 09:14:25;;;;;;;2.15;1.00;;;17.80;99.90;;;;;;5116401;28;20028;-72
2023/08/27 09:16:52;;;;;;;1.83;0.98;;;17.90;99.90;;;;;;5115927;28;20038;-72
2023/08/27 09:19:18;;;;;;;1.13;0.60;;;17.90;99.90;;;;;;5116226;28;20483;-72
2023/08/27 09:21:44;;;;;;;3.45;1.10;;;18.00;99.90;;;;;;5096291;28;20031;-72
2023/08/27 09:24:10;;;;;;;1.50;0.80;;;18.10;99.90;;;;;;5115707;28;20414;-72
2023/08/27 09:26:36;;;;;;;1.70;0.80;;;18.20;99.90;;;;;;5115869;28;20020;-72
2023/08/27 09:29:03;;;;;;;2.20;1.00;;;18.20;99.90;;;;;;5108481;27;20114;-72
2023/08/27 09:31:42;;;;;;;1.23;0.70;;;18.40;99.90;;;;;;5102773;28;20122;-72
2023/08/27 09:34:09;;;;;;;1.77;0.77;;;18.50;99.90;;;;;;5113205;28;20028;-72
2023/08/27 09:36:38;;;;;;;1.67;0.80;;;18.50;99.90;;;;;;5109896;27;20073;-73
2023/08/27 09:39:11;;;;;;;1.83;0.68;;;18.70;99.90;;;;;;5103445;28;20058;-72
2023/08/27 09:41:42;;;;;;;1.60;0.55;;;18.80;99.90;;;;;;5095898;28;20020;-73
2023/08/27 09:44:08;;;;;;;1.63;0.50;;;19.00;99.90;;;;;;5107289;28;20028;-72
2023/08/27 09:46:34;;;;;;;1.15;0.70;;;19.10;99.90;;;;;;5099008;27;20023;-73
2023/08/27 09:49:04;;;;;;;1.88;0.60;;;19.20;99.90;;;;;;5103962;28;20058;-73
2023/08/27 09:51:33;;;;;;;0.65;0.35;;;19.20;99.90;;;;;;5094849;28;20069;-73
2023/08/27 09:53:59;;;;;;;1.50;0.50;;;19.20;99.90;;;;;;5101402;28;20047;-73
2023/08/27 09:56:26;;;;;;;0.82;0.40;;;19.30;99.90;;;;;;5115341;28;20024;-73
2023/08/27 09:58:53;;;;;;;0.80;0.43;;;19.40;99.90;;;;;;5106921;28;20032;-73
2023/08/27 10:01:23;;;;;;;0.45;0.30;;;19.40;99.90;;;;;;5095965;28;20138;-73
2023/08/27 10:03:49;;;;;;;2.00;0.40;;;19.40;99.90;;;;;;5097892;28;20107;-73
2023/08/27 10:06:15;;;;;;;0.50;0.30;;;19.50;99.90;;;;;;5101385;28;20115;-73
2023/08/27 10:08:54;;;;;;;1.70;0.50;;;19.50;99.90;;;;;;5100557;28;20039;-74
2023/08/27 10:11:22;;;;;;;0.63;0.40;;;19.60;99.90;;;;;;5100092;28;20030;-73
2023/08/27 10:13:47;;;;;;;1.02;0.45;;;19.80;99.90;;;;;;5076775;28;20162;-73
2023/08/27 10:16:14;;;;;;;0.70;0.32;;;19.90;99.90;;;;;;5103302;27;20529;-73
2023/08/27 10:18:41;;;;;;;0.60;0.30;;;19.90;99.90;;;;;;5111495;28;20024;-73
2023/08/27 10:21:08;;;;;;;1.20;0.50;;;20.00;99.90;;;;;;5101083;27;20045;-73
2023/08/27 10:23:38;;;;;;;0.75;0.45;;;20.10;99.90;;;;;;5105653;28;20102;-73
2023/08/27 10:26:04;;;;;;;0.82;0.30;;;20.20;99.90;;;;;;5094380;28;20102;-74
2023/08/27 10:28:31;;;;;;;0.93;0.40;;;20.30;99.90;;;;;;5094684;28;20107;-73
2023/08/27 10:30:57;;;;;;;2.25;0.38;;;20.30;99.90;;;;;;5094841;28;20028;-73
2023/08/27 10:33:22;;;;;;;1.83;0.40;;;20.30;99.90;;;;;;5093789;28;20050;-73
2023/08/27 10:35:51;;;;;;;0.65;0.32;;;20.30;99.90;;;;;;5094387;28;20484;-73
2023/08/27 10:38:18;;;;;;;0.45;0.35;;;20.40;99.90;;;;;;5094744;28;20052;-74
2023/08/27 10:40:45;;;;;;;0.95;0.60;;;20.50;99.90;;;;;;5094314;28;20028;-74
2023/08/27 10:43:19;;;;;;;1.10;0.70;;;20.50;99.90;;;;;;5095978;28;20380;-74
2023/08/27 10:45:46;;;;;;;1.10;0.60;;;20.60;99.90;;;;;;5104565;28;20059;-74
2023/08/27 10:48:17;;;;;;;0.73;0.50;;;20.50;99.90;;;;;;5103845;28;20081;-74
2023/08/27 10:50:47;;;;;;;1.38;0.70;;;20.40;99.90;;;;;;5107184;28;20062;-74
2023/08/27 10:53:17;;;;;;;1.88;0.90;;;20.20;99.90;;;;;;5106198;28;20035;-72
2023/08/27 10:55:49;;;;;;;2.05;0.70;;;20.20;99.90;;;;;;5106715;28;20456;-74
2023/08/27 10:58:26;;;;;;;1.38;0.70;;;20.30;99.90;;;;;;5107594;28;20059;-74
2023/08/27 11:01:12;;;;;;;0.70;0.45;;;20.40;99.90;;;;;;5105727;28;20023;-74
2023/08/27 11:03:57;;;;;;;1.00;0.63;;;20.50;99.90;;;;;;5099718;28;20028;-74
2023/08/27 11:06:52;;;;;;;1.45;0.68;;;20.50;99.90;;;;;;5109214;28;20076;-74
2023/08/27 11:09:23;;;;;;;1.45;0.55;;;20.40;99.90;;;;;;5097611;28;20122;-73
2023/08/27 11:12:03;;;;;;;1.13;0.70;;;20.40;99.90;;;;;;5107699;28;20031;-74
2023/08/27 11:14:35;;;;;;;3.60;2.15;;;20.40;99.90;;;;;;5108525;28;20109;-74
2023/08/27 11:17:03;;;;;;;1.42;0.80;;;20.40;99.90;;;;;;5105853;28;20030;-74
2023/08/27 11:19:37;;;;;;;1.15;0.80;;;20.30;99.90;;;;;;5085973;28;20395;-74
2023/08/27 11:22:09;;;;;;;1.33;0.70;;;20.30;99.90;;;;;;5107014;28;20020;-74
2023/08/27 11:24:39;;;;;;;1.90;1.20;;;20.30;99.90;;;;;;5109936;28;20015;-74
2023/08/27 11:27:06;;;;;;;1.53;0.70;;;20.40;99.90;;;;;;5092312;28;20024;-74
2023/08/27 11:29:38;;;;;;;1.02;0.70;;;20.50;99.90;;;;;;5109408;28;20265;-74
2023/08/27 11:32:04;;;;;;;1.48;0.80;;;20.60;99.90;;;;;;5103815;28;20056;-74
2023/08/27 11:34:38;;;;;;;1.73;0.80;;;20.60;99.90;;;;;;5095379;28;20024;-74
2023/08/27 11:37:04;;;;;;;2.22;0.98;;;20.60;99.90;;;;;;5097029;28;20035;-74
2023/08/27 11:39:32;;;;;;;2.75;1.35;;;20.60;99.90;;;;;;5106148;28;20054;-74
2023/08/27 11:41:57;;;;;;;2.00;1.02;;;20.60;99.90;;;;;;5093853;28;20094;-74
2023/08/27 11:44:23;;;;;;;1.05;0.65;;;20.60;99.90;;;;;;5093683;28;20024;-74
2023/08/27 11:46:51;;;;;;;1.88;0.60;;;20.70;99.90;;;;;;5099361;28;20050;-74
2023/08/27 11:49:31;;;;;;;1.20;0.70;;;20.70;99.90;;;;;;5095348;28;20024;-74
2023/08/27 11:51:58;;;;;;;1.13;0.60;;;20.60;99.90;;;;;;5093726;28;20426;-73
2023/08/27 11:54:30;;;;;;;1.83;0.70;;;20.60;99.90;;;;;;5106224;28;20031;-73
2023/08/27 11:56:57;;;;;;;2.67;0.70;;;20.50;99.90;;;;;;5102663;28;20443;-73
2023/08/27 11:59:24;;;;;;;1.17;0.68;;;20.40;99.90;;;;;;5107863;28;20493;-74
2023/08/27 12:01:51;;;;;;;1.50;0.90;;;20.20;99.90;;;;;;5097737;28;20034;-74
2023/08/27 12:04:17;;;;;;;2.05;0.80;;;20.10;99.90;;;;;;5099799;28;20028;-74
2023/08/27 12:06:54;;;;;;;1.38;0.55;;;20.00;99.90;;;;;;5096308;28;20392;-74
2023/08/27 12:09:31;;;;;;;1.30;0.60;;;19.90;99.90;;;;;;5099114;28;20077;-74
2023/08/27 12:12:07;;;;;;;1.20;0.80;;;19.90;99.90;;;;;;5098101;28;20109;-73
2023/08/27 12:14:34;;;;;;;2.63;0.90;;;19.90;99.90;;;;;;5092519;28;20036;-74
2023/08/27 12:17:07;;;;;;;1.27;0.65;;;19.90;99.90;;;;;;5100767;28;20080;-73
2023/08/27 12:19:34;;;;;;;1.90;0.60;;;19.80;99.90;;;;;;5113217;28;20032;-74
2023/08/27 12:22:00;;;;;;;1.13;0.63;;;19.70;99.90;;;;;;5113759;28;20039;-73
2023/08/27 12:24:40;;;;;;;0.85;0.60;;;19.70;99.90;;;;;;5113792;28;20420;-73
2023/08/27 12:27:08;;;;;;;1.40;0.70;;;19.60;99.90;;;;;;5113497;28;20023;-73
2023/08/27 12:29:44;;;;;;;1.45;0.77;;;19.50;99.90;;;;;;5113590;28;20578;-73
2023/08/27 12:32:17;;;;;;;1.05;0.60;;;19.50;99.90;;;;;;5113340;28;20031;-73
2023/08/27 12:34:48;;;;;;;1.00;0.63;;;19.40;99.90;;;;;;5113123;28;20030;-73
2023/08/27 12:37:15;;;;;;;;;;;19.50;99.90;;;;;;5114322;28;20454;-73
2023/08/27 12:39:41;;;;;;;1.35;0.60;;;19.40;99.90;;;;;;5113183;28;19955;-73
2023/08/27 12:42:08;;;;;;;1.50;0.77;;;19.40;99.90;;;;;;5113280;28;20054;-73
2023/08/27 12:44:35;;;;;;;2.70;0.90;;;19.40;99.90;;;;;;5113513;28;20030;-73
2023/08/27 12:47:01;;;;;;;1.30;0.55;;;19.30;99.90;;;;;;5105704;28;20407;-73
2023/08/27 12:49:28;;;;;;;1.80;0.80;;;19.20;99.90;;;;;;5092187;28;20046;-73